createdAt,value
2022-12-08T00:00:18.826Z,100568.59
2022-12-08T00:03:39.046Z,100562.50
2022-12-08T00:07:03.041Z,100566.81
2022-12-08T00:10:48.061Z,100562.06
2022-12-08T00:13:52.302Z,100557.31
2022-12-08T00:17:05.941Z,100553.50
2022-12-08T00:20:09.491Z,100555.25
2022-12-08T00:23:23.557Z,100557.09
2022-12-08T00:26:39.650Z,100563.59
2022-12-08T00:30:00.961Z,100562.06
2022-12-08T00:33:17.602Z,100557.53
2022-12-08T00:36:39.714Z,100571.34
2022-12-08T00:40:03.002Z,100572.06
2022-12-08T00:43:31.517Z,100578.47
2022-12-08T00:46:54.679Z,100570.13
2022-12-08T00:50:16.677Z,100576.03
2022-12-08T00:53:38.537Z,100578.81
2022-12-08T00:57:01.515Z,100567.84
2022-12-08T01:00:23.605Z,100572.25
2022-12-08T01:03:46.682Z,100574.47
2022-12-08T01:07:09.447Z,100573.41
2022-12-08T01:10:28.698Z,100577.25
2022-12-08T01:13:49.551Z,100585.09
2022-12-08T01:17:08.367Z,100574.75
2022-12-08T01:20:31.510Z,100589.28
2022-12-08T01:23:59.612Z,100583.81
2022-12-08T01:27:23.581Z,100576.78
2022-12-08T01:30:46.620Z,100578.28
2022-12-08T01:34:10.016Z,100574.78
2022-12-08T01:37:27.609Z,100560.09
2022-12-08T01:40:30.431Z,100574.75
2022-12-08T01:44:11.163Z,100568.56
2022-12-08T01:47:33.522Z,100568.41
2022-12-08T01:50:51.535Z,100560.09
2022-12-08T01:54:03.524Z,100566.47
2022-12-08T01:57:37.406Z,100566.25
2022-12-08T02:00:58.583Z,100559.03
2022-12-08T02:04:21.354Z,100558.31
2022-12-08T02:07:46.653Z,100559.00
2022-12-08T02:10:54.895Z,100552.84
2022-12-08T02:14:00.817Z,100550.13
2022-12-08T02:17:42.968Z,100555.69
2022-12-08T02:20:55.806Z,100552.06
2022-12-08T02:24:21.512Z,100542.66
2022-12-08T02:28:11.449Z,100549.31
2022-12-08T02:31:17.729Z,100530.50
2022-12-08T02:35:38.290Z,100533.53
2022-12-08T02:39:38.376Z,100536.06
2022-12-08T02:42:56.080Z,100548.59
2022-12-08T02:46:10.454Z,100538.97
2022-12-08T02:49:33.435Z,100545.00
2022-12-08T02:52:48.264Z,100535.03
2022-12-08T02:56:05.379Z,100534.56
2022-12-08T02:59:32.357Z,100527.03
2022-12-08T03:03:01.406Z,100523.09
2022-12-08T03:06:25.803Z,100513.31
2022-12-08T03:09:41.875Z,100515.19
2022-12-08T03:12:59.196Z,100513.00
2022-12-08T03:16:13.637Z,100518.09
2022-12-08T03:19:44.446Z,100514.78
2022-12-08T03:22:49.525Z,100522.66
2022-12-08T03:26:12.331Z,100523.38
2022-12-08T03:29:38.159Z,100524.31
2022-12-08T03:33:18.393Z,100518.44
2022-12-08T03:36:29.323Z,100520.88
2022-12-08T03:39:49.243Z,100518.91
2022-12-08T03:43:09.176Z,100520.28
2022-12-08T03:49:55.148Z,100522.72
2022-12-08T03:53:18.076Z,100514.72
2022-12-08T03:56:39.352Z,100513.56
2022-12-08T03:59:55.297Z,100523.44
2022-12-08T04:03:15.187Z,100506.00
2022-12-08T04:06:39.202Z,100515.22
2022-12-08T04:09:59.222Z,100511.03
2022-12-08T04:13:15.339Z,100512.06
2022-12-08T04:16:29.687Z,100505.00
2022-12-08T04:19:33.326Z,100505.09
2022-12-08T04:22:53.816Z,100498.94
2022-12-08T04:26:14.629Z,100500.56
2022-12-08T04:29:35.816Z,100497.41
2022-12-08T04:32:47.494Z,100493.84
2022-12-08T04:36:11.717Z,100487.31
2022-12-08T04:39:35.934Z,100486.38
2022-12-08T04:43:04.074Z,100498.72
2022-12-08T04:46:30.910Z,100492.41
2022-12-08T04:49:46.935Z,100487.56
2022-12-08T04:53:01.782Z,100478.94
2022-12-08T04:56:31.908Z,100493.69
2022-12-08T04:59:52.068Z,100487.91
2022-12-08T05:03:14.177Z,100486.38
2022-12-08T05:06:50.208Z,100494.19
2022-12-08T05:10:10.355Z,100496.38
2022-12-08T05:13:26.014Z,100493.34
2022-12-08T05:16:46.075Z,100492.88
2022-12-08T05:20:07.241Z,100495.69
2022-12-08T05:23:28.969Z,100498.94
2022-12-08T05:26:58.163Z,100498.00
2022-12-08T05:30:01.131Z,100494.63
2022-12-08T05:33:05.285Z,100497.31
2022-12-08T05:36:16.595Z,100495.22
2022-12-08T05:39:39.836Z,100484.31
2022-12-08T05:43:00.600Z,100482.22
2022-12-08T05:46:04.003Z,100467.31
2022-12-08T05:49:19.945Z,100470.34
2022-12-08T05:52:29.665Z,100457.78
2022-12-08T05:55:38.860Z,100468.38
2022-12-08T05:59:01.808Z,100477.88
2022-12-08T06:02:29.931Z,100488.69
2022-12-08T06:05:45.018Z,100480.91
2022-12-08T06:08:57.119Z,100479.38
2022-12-08T06:12:13.589Z,100494.16
2022-12-08T06:15:24.803Z,100493.34
2022-12-08T06:18:32.580Z,100497.75
2022-12-08T06:21:50.902Z,100505.09
2022-12-08T06:25:10.229Z,100499.63
2022-12-08T06:28:20.266Z,100504.28
2022-12-08T06:31:37.118Z,100497.66
2022-12-08T06:34:53.643Z,100506.72
2022-12-08T06:38:33.716Z,100508.09
2022-12-08T06:42:30.802Z,100509.59
2022-12-08T06:45:52.829Z,100506.56
2022-12-08T06:48:59.105Z,100504.13
2022-12-08T06:57:30.068Z,100516.56
2022-12-08T07:00:37.648Z,100515.31
2022-12-08T07:03:55.714Z,100513.31
2022-12-08T07:07:22.164Z,100513.13
2022-12-08T07:10:42.880Z,100512.50
2022-12-08T07:14:00.763Z,100517.50
2022-12-08T07:17:12.204Z,100508.56
2022-12-08T07:20:37.693Z,100501.84
2022-12-08T07:24:10.558Z,100508.56
2022-12-08T07:28:07.346Z,100513.22
2022-12-08T07:31:28.067Z,100512.41
2022-12-08T07:34:40.445Z,100510.19
2022-12-08T07:39:04.082Z,100503.34
2022-12-08T07:42:14.166Z,100500.84
2022-12-08T07:45:28.345Z,100499.81
2022-12-08T07:48:55.835Z,100498.72
2022-12-08T07:53:37.896Z,100503.41
2022-12-08T08:02:27.947Z,100497.97
2022-12-08T08:06:05.466Z,100499.19
2022-12-08T08:09:12.011Z,100497.88
2022-12-08T08:12:41.810Z,100505.47
2022-12-08T08:16:04.618Z,100504.94
2022-12-08T08:19:11.795Z,100509.97
2022-12-08T08:23:26.947Z,100511.19
2022-12-08T08:26:47.213Z,100501.63
2022-12-08T08:29:59.640Z,100499.22
2022-12-08T08:33:23.307Z,100494.25
2022-12-08T08:36:44.048Z,100499.00
2022-12-08T08:40:18.049Z,100495.69
2022-12-08T08:43:49.245Z,100499.97
2022-12-08T08:47:45.162Z,100508.81
2022-12-08T08:51:17.635Z,100499.78
2022-12-08T08:59:50.972Z,100496.06
2022-12-08T09:04:20.906Z,100482.69
2022-12-08T09:08:10.469Z,100484.28
2022-12-08T09:11:26.904Z,100483.97
2022-12-08T09:14:47.803Z,100493.09
2022-12-08T09:18:20.706Z,100490.31
2022-12-08T09:22:49.273Z,100461.25
2022-12-08T09:26:12.545Z,100467.06
2022-12-08T09:29:48.736Z,100468.13
2022-12-08T09:33:12.486Z,100470.97
2022-12-08T09:37:26.862Z,100467.06
2022-12-08T09:41:03.670Z,100460.75
2022-12-08T09:44:35.490Z,100451.28
2022-12-08T09:48:29.544Z,100450.63
2022-12-08T09:52:29.199Z,100429.66
2022-12-08T09:56:19.472Z,100424.97
2022-12-08T09:59:44.128Z,100417.53
2022-12-08T10:03:16.433Z,100409.13
2022-12-08T10:07:14.637Z,100415.66
2022-12-08T10:11:28.939Z,100428.66
2022-12-08T10:15:29.629Z,100437.53
2022-12-08T10:18:48.376Z,100446.06
2022-12-08T10:22:00.267Z,100434.09
2022-12-08T10:25:28.309Z,100434.53
2022-12-08T10:29:31.347Z,100419.75
2022-12-08T10:34:03.098Z,100417.06
2022-12-08T10:38:19.327Z,100395.44
2022-12-08T10:41:46.164Z,100386.88
2022-12-08T10:51:32.284Z,100375.66
2022-12-08T11:00:50.125Z,100355.25
2022-12-08T11:04:29.469Z,100353.66
2022-12-08T11:08:05.536Z,100344.63
2022-12-08T11:12:06.155Z,100340.97
2022-12-08T11:16:20.453Z,100336.28
2022-12-08T11:20:03.891Z,100336.13
2022-12-08T11:23:58.099Z,100327.00
2022-12-08T11:33:27.407Z,100309.22
2022-12-08T11:38:19.833Z,100297.13
2022-12-08T11:42:17.322Z,100286.56
2022-12-08T11:46:55.527Z,100270.97
2022-12-08T11:51:40.869Z,100253.13
2022-12-08T11:55:52.939Z,100253.19
2022-12-08T11:59:49.239Z,100257.78
2022-12-08T12:08:48.128Z,100251.63
2022-12-08T12:12:52.972Z,100250.25
2022-12-08T12:17:25.681Z,100265.59
2022-12-08T12:21:47.265Z,100252.94
2022-12-08T12:25:55.193Z,100259.56
2022-12-08T12:29:38.797Z,100266.56
2022-12-08T12:33:06.104Z,100264.22
2022-12-08T12:36:26.651Z,100259.94
2022-12-08T12:40:33.754Z,100259.94
2022-12-08T12:44:27.608Z,100254.44
2022-12-08T12:48:16.641Z,100261.25
2022-12-08T12:51:44.732Z,100259.38
2022-12-08T12:56:04.597Z,100253.75
2022-12-08T13:00:03.560Z,100250.75
2022-12-08T13:03:28.344Z,100243.16
2022-12-08T13:06:51.124Z,100241.56
2022-12-08T13:10:44.698Z,100243.16
2022-12-08T13:14:08.250Z,100236.69
2022-12-08T13:18:17.978Z,100241.84
2022-12-08T13:22:30.954Z,100236.47
2022-12-08T13:26:29.221Z,100227.38
2022-12-08T13:29:47.903Z,100226.03
2022-12-08T13:33:22.896Z,100229.47
2022-12-08T13:37:10.959Z,100227.03
2022-12-08T13:40:48.015Z,100227.78
2022-12-08T13:57:58.478Z,100228.28
2022-12-08T14:01:27.857Z,100233.09
2022-12-08T14:09:47.155Z,100230.22
2022-12-08T14:17:35.491Z,100217.81
2022-12-08T14:21:24.013Z,100222.91
2022-12-08T14:25:10.367Z,100232.28
2022-12-08T14:28:56.568Z,100235.78
2022-12-08T14:32:42.385Z,100232.81
2022-12-08T14:36:20.846Z,100231.09
2022-12-08T14:40:22.870Z,100230.25
2022-12-08T14:43:46.268Z,100225.13
2022-12-08T14:47:21.694Z,100234.28
2022-12-08T14:50:51.053Z,100230.78
2022-12-08T14:54:16.336Z,100227.81
2022-12-08T14:57:44.161Z,100230.25
2022-12-08T15:01:19.273Z,100227.81
2022-12-08T15:05:03.325Z,100228.28
2022-12-08T15:09:30.032Z,100217.78
2022-12-08T15:13:16.547Z,100212.44
2022-12-08T15:16:53.659Z,100209.44
2022-12-08T15:20:39.966Z,100210.00
2022-12-08T15:24:06.824Z,100215.63
2022-12-08T15:27:49.881Z,100218.63
2022-12-08T15:31:02.819Z,100213.28
2022-12-08T15:34:20.786Z,100208.22
2022-12-08T15:37:47.140Z,100206.81
2022-12-08T15:41:14.857Z,100199.84
2022-12-08T15:44:33.694Z,100195.19
2022-12-08T15:47:47.089Z,100197.94
2022-12-08T15:51:07.109Z,100191.78
2022-12-08T15:54:30.369Z,100179.50
2022-12-08T15:58:52.441Z,100186.22
2022-12-08T16:01:28.106Z,100180.78
2022-12-08T16:05:40.144Z,100192.59
2022-12-08T16:08:45.181Z,100187.78
2022-12-08T16:12:14.985Z,100183.44
2022-12-08T16:19:14.866Z,100193.41
2022-12-08T16:26:16.827Z,100197.53
2022-12-08T16:29:35.195Z,100192.78
2022-12-08T16:32:38.232Z,100197.63
2022-12-08T16:35:42.566Z,100199.22
2022-12-08T16:38:52.550Z,100189.28
2022-12-08T16:42:39.518Z,100192.19
2022-12-08T16:45:45.004Z,100187.81
2022-12-08T16:49:08.975Z,100173.34
2022-12-08T16:52:35.109Z,100182.44
2022-12-08T16:55:51.886Z,100183.63
2022-12-08T16:59:09.310Z,100187.63
2022-12-08T17:02:26.011Z,100199.34
2022-12-08T17:05:57.848Z,100199.34
2022-12-08T17:09:18.703Z,100196.66
2022-12-08T17:12:43.532Z,100190.81
2022-12-08T17:16:02.769Z,100183.84
2022-12-08T17:19:13.932Z,100183.91
2022-12-08T17:22:16.914Z,100196.25
2022-12-08T17:25:20.990Z,100180.72
2022-12-08T17:28:59.043Z,100182.06
2022-12-08T17:32:19.688Z,100186.63
2022-12-08T17:35:39.479Z,100185.75
2022-12-08T17:38:50.510Z,100190.09
2022-12-08T17:42:05.960Z,100183.38
2022-12-08T17:45:22.302Z,100193.31
2022-12-08T17:48:31.401Z,100181.81
2022-12-08T17:51:46.672Z,100170.53
2022-12-08T17:54:54.300Z,100176.38
2022-12-08T17:58:11.056Z,100174.78
2022-12-08T18:01:15.811Z,100181.78
2022-12-08T18:04:20.701Z,100178.56
2022-12-08T18:07:26.846Z,100182.91
2022-12-08T18:10:48.293Z,100178.56
2022-12-08T18:14:17.817Z,100176.19
2022-12-08T18:17:40.798Z,100172.66
2022-12-08T18:21:05.014Z,100163.81
2022-12-08T18:24:24.676Z,100166.78
2022-12-08T18:27:43.187Z,100171.59
2022-12-08T18:30:55.489Z,100169.22
2022-12-08T18:34:11.951Z,100164.94
2022-12-08T18:37:41.071Z,100163.53
2022-12-08T18:41:17.019Z,100167.56
2022-12-08T18:44:38.435Z,100174.88
2022-12-08T18:48:02.429Z,100174.59
2022-12-08T18:51:21.540Z,100171.91
2022-12-08T18:54:58.164Z,100171.72
2022-12-08T18:58:06.763Z,100165.75
2022-12-08T19:01:22.704Z,100177.59
2022-12-08T19:04:48.303Z,100163.38
2022-12-08T19:08:00.423Z,100170.03
2022-12-08T19:11:29.262Z,100159.56
2022-12-08T19:14:51.644Z,100164.72
2022-12-08T19:18:11.736Z,100170.91
2022-12-08T19:21:40.127Z,100165.53
2022-12-08T19:24:50.947Z,100166.88
2022-12-08T19:28:00.503Z,100170.63
2022-12-08T19:31:14.377Z,100171.91
2022-12-08T19:34:19.294Z,100184.84
2022-12-08T19:37:25.122Z,100182.63
2022-12-08T19:40:47.299Z,100176.47
2022-12-08T19:44:15.932Z,100172.19
2022-12-08T19:47:30.915Z,100164.88
2022-12-08T19:50:37.887Z,100163.44
2022-12-08T19:53:49.162Z,100160.72
2022-12-08T19:57:10.463Z,100164.75
2022-12-08T20:00:28.613Z,100162.03
2022-12-08T20:03:51.562Z,100153.28
2022-12-08T20:07:14.565Z,100159.25
2022-12-08T20:10:37.629Z,100152.72
2022-12-08T20:13:54.540Z,100150.56
2022-12-08T20:17:19.516Z,100151.22
2022-12-08T20:20:42.482Z,100155.41
2022-12-08T20:24:03.866Z,100146.59
2022-12-08T20:27:31.804Z,100138.81
2022-12-08T20:30:51.687Z,100130.69
2022-12-08T20:34:08.562Z,100142.50
2022-12-08T20:37:33.466Z,100131.22
2022-12-08T20:40:51.651Z,100137.59
2022-12-08T20:44:12.455Z,100148.66
2022-12-08T20:47:39.416Z,100154.16
2022-12-08T20:51:01.544Z,100150.13
2022-12-08T20:54:11.500Z,100150.72
2022-12-08T20:57:34.429Z,100161.13
2022-12-08T21:01:00.850Z,100169.94
2022-12-08T21:04:20.655Z,100172.63
2022-12-08T21:07:47.568Z,100164.31
2022-12-08T21:11:12.512Z,100163.19
2022-12-08T21:14:30.679Z,100164.50
2022-12-08T21:17:34.927Z,100167.47
2022-12-08T21:20:43.424Z,100168.34
2022-12-08T21:23:57.113Z,100170.84
2022-12-08T21:27:07.024Z,100176.63
2022-12-08T21:30:17.208Z,100175.25
2022-12-08T21:33:21.273Z,100169.22
2022-12-08T21:36:28.354Z,100154.50
2022-12-08T21:39:43.889Z,100146.72
2022-12-08T21:42:57.649Z,100136.69
2022-12-08T21:46:00.837Z,100128.06
2022-12-08T21:49:11.405Z,100133.03
2022-12-08T21:52:34.369Z,100125.59
2022-12-08T21:55:56.347Z,100138.25
2022-12-08T21:59:23.315Z,100134.00
2022-12-08T22:02:45.898Z,100132.66
2022-12-08T22:05:55.272Z,100148.09
2022-12-08T22:08:58.471Z,100148.63
2022-12-08T22:12:17.952Z,100149.47
2022-12-08T22:15:21.451Z,100142.97
2022-12-08T22:18:45.465Z,100147.84
2022-12-08T22:22:05.936Z,100138.69
2022-12-08T22:25:31.781Z,100137.84
2022-12-08T22:28:56.593Z,100131.81
2022-12-08T22:32:28.100Z,100159.66
2022-12-08T22:36:11.409Z,100159.81
2022-12-08T22:39:37.093Z,100152.53
2022-12-08T22:43:12.155Z,100149.06
2022-12-08T22:46:28.198Z,100142.66
2022-12-08T22:49:32.496Z,100140.66
2022-12-08T22:52:36.631Z,100133.47
2022-12-08T22:55:51.798Z,100151.81
2022-12-08T22:58:59.136Z,100145.09
2022-12-08T23:02:03.147Z,100142.25
2022-12-08T23:05:10.524Z,100148.84
2022-12-08T23:08:23.221Z,100146.72
2022-12-08T23:11:39.416Z,100139.22
2022-12-08T23:15:05.111Z,100133.84
2022-12-08T23:18:29.008Z,100131.81
2022-12-08T23:21:49.292Z,100138.09
2022-12-08T23:25:12.152Z,100143.69
2022-12-08T23:28:25.782Z,100134.66
2022-12-08T23:31:33.441Z,100127.22
2022-12-08T23:34:43.526Z,100126.75
2022-12-08T23:37:54.847Z,100132.84
2022-12-08T23:41:17.322Z,100143.47
2022-12-08T23:44:45.109Z,100145.19
2022-12-08T23:48:09.934Z,100136.41
2022-12-08T23:51:26.195Z,100124.03
2022-12-08T23:54:40.730Z,100119.38
2022-12-08T23:58:05.128Z,100128.19
